Richmond North's Hourly Summary for Saturday, May 12, 2018
Hour Temp
(f)
RH
(%)
Solar Rad.
(MJ/m2)
Rainfall
(in)
Wind
(mph)
5/12/2018 12:00 AM 73 91 0 0 2.89
5/12/2018 1:00 AM 72 92 0 0 1.38
5/12/2018 2:00 AM 71 95 0 0 0.27
5/12/2018 3:00 AM 72 96 0 0 1.37
5/12/2018 4:00 AM 71 96 0 0 0.78
5/12/2018 5:00 AM 71 97 0 0 2.25
5/12/2018 6:00 AM 71 97 0.04 0 1.71
5/12/2018 7:00 AM 73 90 0.38 0 2.48
5/12/2018 8:00 AM 76 81 0.71 0 3.72
5/12/2018 9:00 AM 79 71 1.27 0 5.02
5/12/2018 10:00 AM 82 59 2.57 0 4.91
5/12/2018 11:00 AM 85 56 2.56 0 4.7
5/12/2018 12:00 PM 85 52 2.54 0 4.61
5/12/2018 1:00 PM 86 50 2.4 0 4.78
5/12/2018 2:00 PM 88 49 2.9 0 6.09
5/12/2018 3:00 PM 87 51 2.51 0 5.8
5/12/2018 4:00 PM 87 50 2.24 0 5.87
5/12/2018 5:00 PM 86 53 1.66 0 6.19
5/12/2018 6:00 PM 84 58 0.93 0 6.58
5/12/2018 7:00 PM 80 65 0.21 0 6.45
5/12/2018 8:00 PM 78 72 0 0 4.5
5/12/2018 9:00 PM 76 81 0 0 3.46
5/12/2018 10:00 PM 75 88 0 0 2.87
5/12/2018 11:00 PM 74 92 0 0 1.9
Data Summary 78 74 22.92 0.00 3.77